createdAt,value
2018-12-17T00:00:34.573Z,23.73
2018-12-17T00:05:30.701Z,23.10
2018-12-17T00:10:26.813Z,22.03
2018-12-17T00:15:23.165Z,21.93
2018-12-17T00:20:19.163Z,20.87
2018-12-17T00:25:15.152Z,22.13
2018-12-17T00:30:11.145Z,22.07
2018-12-17T00:35:07.247Z,23.00
2018-12-17T00:40:05.523Z,26.50
2018-12-17T00:45:01.553Z,23.23
2018-12-17T00:49:57.658Z,25.63
2018-12-17T00:54:53.655Z,24.50
2018-12-17T00:59:49.652Z,24.17
2018-12-17T01:04:45.661Z,24.00
2018-12-17T01:09:41.668Z,25.27
2018-12-17T01:14:37.730Z,25.10
2018-12-17T01:19:33.787Z,21.50
2018-12-17T01:24:29.788Z,23.80
2018-12-17T01:29:25.788Z,23.33
2018-12-17T01:34:21.784Z,24.50
2018-12-17T01:39:17.783Z,25.30
2018-12-17T01:44:13.808Z,27.77
2018-12-17T01:49:09.807Z,24.03
2018-12-17T01:54:05.817Z,21.23
2018-12-17T01:59:01.821Z,22.57
2018-12-17T02:03:57.820Z,24.10
2018-12-17T02:08:53.816Z,23.83
2018-12-17T02:13:49.859Z,24.67
2018-12-17T02:18:45.863Z,22.47
2018-12-17T02:23:41.858Z,23.23
2018-12-17T02:28:37.965Z,23.17
2018-12-17T02:33:33.969Z,22.97
2018-12-17T02:38:29.974Z,24.37
2018-12-17T02:43:25.975Z,22.10
2018-12-17T02:48:21.968Z,22.20
2018-12-17T02:53:18.045Z,19.90
2018-12-17T02:58:14.746Z,16.93
2018-12-17T03:03:10.752Z,20.77
2018-12-17T03:08:06.752Z,21.03
2018-12-17T03:13:02.762Z,19.20
2018-12-17T03:17:58.761Z,19.27
2018-12-17T03:22:54.783Z,18.80
2018-12-17T03:27:52.658Z,19.70
2018-12-17T03:32:55.841Z,21.60
2018-12-17T03:37:51.846Z,18.00
2018-12-17T03:42:47.941Z,18.17
2018-12-17T03:47:43.932Z,19.67
2018-12-17T03:52:39.905Z,18.97
2018-12-17T03:57:38.492Z,16.97
2018-12-17T04:02:34.554Z,18.17
2018-12-17T04:07:30.711Z,16.47
2018-12-17T04:12:26.709Z,17.40
2018-12-17T04:17:22.713Z,17.87
2018-12-17T04:22:18.712Z,16.40
2018-12-17T04:27:14.705Z,16.37
2018-12-17T04:32:10.699Z,16.63
2018-12-17T04:37:06.710Z,17.00
2018-12-17T04:42:02.841Z,15.17
2018-12-17T04:46:58.834Z,15.47
2018-12-17T04:52:01.864Z,15.17
2018-12-17T04:56:57.865Z,14.93
2018-12-17T05:01:53.847Z,14.53
2018-12-17T05:06:49.843Z,15.37
2018-12-17T05:11:45.837Z,14.80
2018-12-17T05:16:41.904Z,14.33
2018-12-17T05:21:37.902Z,14.37
2018-12-17T05:26:34.037Z,12.80
2018-12-17T05:31:30.137Z,15.20
2018-12-17T05:36:26.148Z,13.73
2018-12-17T05:41:22.177Z,14.23
2018-12-17T05:46:18.182Z,13.40
2018-12-17T05:51:14.315Z,13.30
2018-12-17T05:56:10.326Z,12.93
2018-12-17T06:01:06.335Z,13.03
2018-12-17T06:06:02.335Z,15.17
2018-12-17T06:10:58.328Z,13.73
2018-12-17T06:15:54.310Z,12.37
2018-12-17T06:20:51.526Z,12.50
2018-12-17T06:25:47.562Z,13.80
2018-12-17T06:30:43.858Z,12.03
2018-12-17T06:35:39.887Z,13.23
2018-12-17T06:40:35.904Z,12.20
2018-12-17T06:45:31.905Z,13.27
2018-12-17T06:50:27.892Z,11.50
2018-12-17T06:55:23.894Z,11.33
2018-12-17T07:00:20.020Z,10.80
2018-12-17T07:05:16.034Z,10.20
2018-12-17T07:10:12.073Z,10.03
2018-12-17T07:15:08.160Z,11.80
2018-12-17T07:20:05.454Z,10.73
2018-12-17T07:25:01.633Z,11.17
2018-12-17T07:29:57.671Z,10.80
2018-12-17T07:34:53.869Z,9.90
2018-12-17T07:39:49.952Z,11.00
2018-12-17T07:44:45.985Z,10.37
2018-12-17T07:49:42.077Z,10.20
2018-12-17T07:54:38.175Z,11.30
2018-12-17T07:59:35.686Z,12.63
2018-12-17T08:04:32.028Z,11.60
2018-12-17T08:09:28.156Z,10.80
2018-12-17T08:14:24.265Z,10.13
2018-12-17T08:19:20.317Z,10.90
2018-12-17T08:24:16.373Z,10.73
2018-12-17T08:29:12.420Z,11.20
2018-12-17T08:34:08.451Z,12.17
2018-12-17T08:39:05.954Z,11.00
2018-12-17T08:44:02.043Z,12.73
2018-12-17T08:48:58.095Z,9.50
2018-12-17T08:53:54.263Z,10.17
2018-12-17T08:58:50.281Z,11.13
2018-12-17T09:03:46.586Z,10.20
2018-12-17T09:08:42.628Z,8.97
2018-12-17T09:13:38.848Z,9.80
2018-12-17T09:18:34.929Z,8.47
2018-12-17T09:23:31.048Z,8.07
2018-12-17T09:28:27.824Z,8.30
2018-12-17T09:33:23.870Z,8.97
2018-12-17T09:38:19.909Z,7.70
2018-12-17T09:43:15.925Z,8.73
2018-12-17T09:48:11.959Z,8.80
2018-12-17T09:53:09.611Z,8.13
2018-12-17T09:58:08.314Z,8.67
2018-12-17T10:03:05.850Z,9.07
2018-12-17T10:08:04.007Z,7.80
2018-12-17T10:13:00.043Z,8.40
2018-12-17T10:17:56.073Z,6.70
2018-12-17T10:22:52.166Z,8.47
2018-12-17T10:27:51.075Z,8.03
2018-12-17T10:32:47.181Z,7.70
2018-12-17T10:37:43.230Z,8.90
2018-12-17T10:42:39.292Z,6.70
2018-12-17T10:47:35.344Z,8.80
2018-12-17T10:52:38.189Z,7.87
2018-12-17T10:57:35.812Z,8.40
2018-12-17T11:02:32.516Z,8.00
2018-12-17T11:07:29.044Z,7.50
2018-12-17T11:12:27.088Z,7.87
2018-12-17T11:17:23.218Z,9.23
2018-12-17T11:22:19.266Z,8.10
2018-12-17T11:27:15.284Z,8.40
2018-12-17T11:32:11.651Z,8.20
2018-12-17T11:37:07.881Z,7.50
2018-12-17T11:42:05.438Z,7.83
2018-12-17T11:47:01.537Z,6.83
2018-12-17T11:51:57.549Z,6.57
2018-12-17T12:02:30.300Z,5.70
2018-12-17T12:07:26.301Z,6.57
2018-12-17T12:12:22.332Z,6.53
2018-12-17T12:17:18.368Z,7.37
2018-12-17T12:22:14.538Z,6.83
2018-12-17T12:27:10.621Z,7.03
2018-12-17T12:32:06.669Z,7.63
2018-12-17T12:37:02.733Z,6.50
2018-12-17T12:41:58.761Z,6.37
2018-12-17T12:46:54.793Z,7.20
2018-12-17T12:51:50.821Z,6.73
2018-12-17T12:56:46.844Z,6.40
2018-12-17T13:01:42.879Z,7.40
2018-12-17T13:06:38.901Z,8.73
2018-12-17T13:11:34.922Z,8.70
2018-12-17T13:16:30.949Z,8.40
2018-12-17T13:21:26.989Z,7.93
2018-12-17T13:26:23.148Z,7.60
2018-12-17T13:31:19.282Z,6.70
2018-12-17T13:36:15.323Z,6.57
2018-12-17T13:41:11.361Z,6.30
2018-12-17T13:46:07.389Z,5.87
2018-12-17T13:51:09.385Z,6.77
2018-12-17T13:56:05.401Z,5.97
2018-12-17T14:01:01.429Z,7.60
2018-12-17T14:05:57.446Z,6.97
2018-12-17T14:10:53.632Z,6.70
2018-12-17T14:15:51.193Z,7.77
2018-12-17T14:20:53.116Z,6.60
2018-12-17T14:25:49.141Z,7.30
2018-12-17T14:30:45.171Z,7.30
2018-12-17T14:35:47.150Z,6.70
2018-12-17T14:40:43.184Z,8.50
2018-12-17T14:45:39.195Z,7.80
2018-12-17T14:50:35.217Z,8.17
2018-12-17T14:55:31.245Z,9.30
2018-12-17T15:00:27.880Z,9.67
2018-12-17T15:05:47.422Z,9.70
2018-12-17T15:10:43.432Z,11.63
2018-12-17T15:15:39.472Z,11.00
2018-12-17T15:20:35.491Z,12.83
2018-12-17T15:25:31.500Z,12.93
2018-12-17T15:30:27.511Z,11.30
2018-12-17T15:35:23.501Z,12.30
2018-12-17T15:40:19.488Z,11.10
2018-12-17T15:45:15.473Z,13.93
2018-12-17T15:50:11.460Z,13.20
2018-12-17T15:55:07.495Z,14.70
2018-12-17T16:00:06.208Z,14.30
2018-12-17T16:05:02.423Z,16.03
2018-12-17T16:09:58.416Z,15.50
2018-12-17T16:14:54.400Z,17.30
2018-12-17T16:19:50.384Z,17.00
2018-12-17T16:24:46.379Z,17.17
2018-12-17T16:29:42.370Z,17.63
2018-12-17T16:34:38.348Z,18.57
2018-12-17T16:39:34.333Z,17.87
2018-12-17T16:44:30.308Z,18.90
2018-12-17T16:49:26.296Z,18.23
2018-12-17T16:54:22.399Z,18.97
2018-12-17T16:59:18.394Z,16.20
2018-12-17T17:04:14.469Z,16.63
2018-12-17T17:09:10.510Z,16.30
2018-12-17T17:14:06.513Z,18.40
2018-12-17T17:19:02.620Z,17.90
2018-12-17T17:23:58.604Z,18.20
2018-12-17T17:28:54.614Z,20.73
2018-12-17T17:33:50.589Z,19.97
2018-12-17T17:38:46.573Z,20.47
2018-12-17T17:43:49.575Z,18.67
2018-12-17T17:48:45.575Z,22.10
2018-12-17T17:53:48.648Z,24.13
2018-12-17T17:58:45.567Z,23.80
2018-12-17T18:03:41.571Z,26.33
2018-12-17T18:08:37.564Z,28.30
2018-12-17T18:13:33.580Z,29.00
2018-12-17T18:18:29.590Z,30.70
2018-12-17T18:23:25.626Z,28.67
2018-12-17T18:28:23.150Z,25.60
2018-12-17T18:33:19.200Z,24.30
2018-12-17T18:38:15.189Z,26.27
2018-12-17T18:43:11.165Z,27.73
2018-12-17T18:48:07.158Z,25.03
2018-12-17T18:53:03.151Z,28.83
2018-12-17T18:58:01.508Z,25.97
2018-12-17T19:02:57.627Z,27.30
2018-12-17T19:07:53.625Z,29.50
2018-12-17T19:12:49.609Z,26.67
2018-12-17T19:17:45.724Z,26.10
2018-12-17T19:22:41.739Z,26.47
2018-12-17T19:27:39.684Z,27.70
2018-12-17T19:32:40.148Z,26.17
2018-12-17T19:37:33.814Z,27.90
2018-12-17T19:42:29.797Z,27.53
2018-12-17T19:47:25.892Z,27.30
2018-12-17T19:52:21.891Z,29.13
2018-12-17T19:57:17.872Z,28.40
2018-12-17T20:02:14.001Z,28.80
2018-12-17T20:07:10.040Z,28.93
2018-12-17T20:12:06.129Z,27.17
2018-12-17T20:17:03.578Z,29.57
2018-12-17T20:21:59.592Z,27.23
2018-12-17T20:26:55.621Z,27.03
2018-12-17T20:31:51.621Z,26.77
2018-12-17T20:36:47.688Z,25.80
2018-12-17T20:41:43.709Z,26.37
2018-12-17T20:46:39.777Z,25.80
2018-12-17T20:51:35.764Z,26.00
2018-12-17T20:56:31.761Z,24.77
2018-12-17T21:01:27.772Z,25.57
2018-12-17T21:06:23.767Z,27.40
2018-12-17T21:11:19.762Z,27.13
2018-12-17T21:16:15.795Z,27.57
2018-12-17T21:21:11.805Z,25.20
2018-12-17T21:26:07.805Z,26.17
2018-12-17T21:31:03.792Z,26.60
2018-12-17T21:35:59.781Z,24.40
2018-12-17T21:40:55.804Z,24.13
2018-12-17T21:45:51.805Z,25.30
2018-12-17T21:50:47.796Z,26.80
2018-12-17T21:55:43.788Z,26.43
2018-12-17T22:00:39.857Z,25.80
2018-12-17T22:05:35.857Z,26.87
2018-12-17T22:10:33.897Z,27.20
2018-12-17T22:15:29.896Z,25.70
2018-12-17T22:20:25.917Z,26.43
2018-12-17T22:25:21.915Z,25.13
2018-12-17T22:30:18.013Z,27.67
2018-12-17T22:35:14.009Z,26.00
2018-12-17T22:40:10.045Z,26.87
2018-12-17T22:45:06.711Z,27.43
2018-12-17T22:50:03.828Z,24.43
2018-12-17T22:54:59.828Z,24.57
2018-12-17T22:59:55.820Z,23.23
2018-12-17T23:04:51.808Z,25.47
2018-12-17T23:10:00.176Z,24.60
2018-12-17T23:15:08.507Z,24.27
2018-12-17T23:20:04.941Z,24.20
2018-12-17T23:25:01.481Z,25.97
2018-12-17T23:29:57.564Z,25.87
2018-12-17T23:34:53.558Z,25.70
2018-12-17T23:39:49.666Z,24.67
2018-12-17T23:44:45.661Z,25.37
2018-12-17T23:49:41.790Z,24.60
2018-12-17T23:54:37.816Z,24.10
2018-12-17T23:59:33.784Z,19.53
